Churchill Falls, Canada
Current Conditions -  °F | °C
As of 6:00 AM on Wednesday 22 Oct 2014 (Local Time) from CYWK Reporting Station
Clear Clear  
Wind Chill: 14°   Ceiling: Unl
Heat Index: 21°   Visibility: 15mi
Dew Point: 19°   Wind: 6mph
Humidity: 93%   Direction: 270°W
Pressure: 30.4"   Gusts: NA
Location:  53.53°N, 64°W
Report Text: CYWK 220900Z 27005KT 15SM SKC M06/M07 A3040 RMK FROIN SLP332
Loading
Personal Weather Stations






























Interactive Weather Map
Tropical Storm Tracking
New forecast layout! Learn more

10-Day Weather Forecast

Advertisements
Track Severe Weather on mobile